Time;durP1;ratioP1;P1;durP2;ratioP2;P2;SDS_P1;SDS_P2;PMS_P1;PMS_P2;Temp;Humidity;BMP_temperature;BMP_pressure;BME280_temperature;BME280_humidity;BME280_pressure;Samples;Min_cycle;Max_cycle;Signal;HPM_P1;HPM_P2
2022/03/06 00:01:14;;;;;;;46.75;28.27;;;;;;;5.33;50.25;102218.50;5008205;28;20034;-62
2022/03/06 00:03:40;;;;;;;48.17;27.98;;;;;;;5.38;49.84;102219.69;5008260;28;20576;-62
2022/03/06 00:06:05;;;;;;;45.15;27.58;;;;;;;5.30;50.16;102225.22;5009699;28;20102;-59
2022/03/06 00:08:32;;;;;;;47.88;28.52;;;;;;;5.23;50.44;102228.94;5007046;28;20057;-62
2022/03/06 00:10:57;;;;;;;45.53;26.60;;;;;;;5.19;50.52;102225.69;5010768;28;20029;-62
2022/03/06 00:13:22;;;;;;;44.70;27.95;;;;;;;5.13;50.58;102224.53;5010139;28;20026;-62
2022/03/06 00:15:48;;;;;;;45.72;27.95;;;;;;;5.13;51.02;102223.66;5007729;28;20097;-62
2022/03/06 00:18:13;;;;;;;44.65;27.05;;;;;;;5.09;50.09;102225.94;5005267;28;20140;-62
2022/03/06 00:20:41;;;;;;;44.30;27.67;;;;;;;5.01;50.60;102223.22;5005171;28;20034;-62
2022/03/06 00:23:06;;;;;;;43.90;26.98;;;;;;;4.97;50.61;102226.53;5002832;28;20088;-62
2022/03/06 00:25:32;;;;;;;46.42;27.58;;;;;;;4.97;50.83;102221.88;5002372;28;20038;-62
2022/03/06 00:27:57;;;;;;;45.47;27.65;;;;;;;4.92;50.88;102233.44;5005307;28;20109;-62
2022/03/06 00:30:22;;;;;;;47.63;27.90;;;;;;;4.86;50.88;102230.56;5009339;28;20462;-62
2022/03/06 00:32:48;;;;;;;44.08;26.40;;;;;;;4.88;51.08;102223.84;5010470;28;20033;-62
2022/03/06 00:35:13;;;;;;;43.58;26.73;;;;;;;4.95;50.51;102228.59;5007315;28;20022;-62
2022/03/06 00:37:38;;;;;;;44.72;26.48;;;;;;;4.93;50.93;102239.81;5007176;28;20088;-63
2022/03/06 00:40:05;;;;;;;42.30;26.20;;;;;;;4.91;50.62;102234.50;5008839;28;20405;-62
2022/03/06 00:42:34;;;;;;;46.25;27.60;;;;;;;4.98;50.64;102237.34;5012401;28;20049;-59
2022/03/06 00:44:59;;;;;;;44.03;26.83;;;;;;;4.95;50.55;102234.97;5006091;28;20037;-61
2022/03/06 00:47:25;;;;;;;43.90;26.58;;;;;;;4.98;50.02;102242.84;5011987;28;20026;-60
2022/03/06 00:49:52;;;;;;;46.47;27.20;;;;;;;5.00;50.38;102249.06;5009098;28;20040;-60
2022/03/06 00:52:18;;;;;;;43.83;26.30;;;;;;;5.01;49.57;102256.25;5004752;28;20030;-60
2022/03/06 00:54:46;;;;;;;41.13;25.30;;;;;;;5.07;49.69;102260.16;5009218;28;20128;-61
2022/03/06 00:57:11;;;;;;;41.67;25.73;;;;;;;5.02;49.73;102254.34;5008693;28;20033;-60
2022/03/06 00:59:49;;;;;;;41.95;26.27;;;;;;;5.00;49.63;102253.69;5009073;28;20401;-60
2022/03/06 01:02:14;;;;;;;43.20;25.77;;;;;;;5.04;49.22;102250.41;5009131;28;20068;-60
2022/03/06 01:04:40;;;;;;;46.00;26.48;;;;;;;5.01;49.59;102256.25;5008913;28;20073;-60
2022/03/06 01:07:05;;;;;;;42.33;25.23;;;;;;;5.03;49.75;102254.19;5006860;28;20537;-60
2022/03/06 01:09:31;;;;;;;42.08;25.42;;;;;;;4.97;49.53;102259.56;5009318;28;20385;-60
2022/03/06 01:11:56;;;;;;;42.22;26.83;;;;;;;4.90;49.85;102257.53;5006407;28;20045;-60
2022/03/06 01:14:21;;;;;;;43.75;25.85;;;;;;;4.89;49.92;102257.72;5010246;28;20022;-60
2022/03/06 01:16:47;;;;;;;42.35;26.10;;;;;;;4.84;50.10;102260.16;5006431;28;20030;-60
2022/03/06 01:19:12;;;;;;;43.55;25.15;;;;;;;4.79;50.15;102268.06;5009467;28;20099;-60
2022/03/06 01:21:41;;;;;;;44.85;26.25;;;;;;;4.85;50.24;102264.63;5008740;28;20034;-61
2022/03/06 01:24:06;;;;;;;47.08;28.00;;;;;;;4.82;49.80;102262.22;5010553;28;20399;-60
2022/03/06 01:26:32;;;;;;;46.00;27.50;;;;;;;4.85;49.70;102267.38;5007592;28;20466;-60
2022/03/06 01:28:57;;;;;;;43.15;26.20;;;;;;;4.86;49.99;102264.44;5007493;28;20026;-61
2022/03/06 01:31:22;;;;;;;41.80;27.02;;;;;;;4.80;49.75;102269.81;5008394;28;20037;-60
2022/03/06 01:33:47;;;;;;;43.22;26.85;;;;;;;4.82;49.40;102274.06;5008867;28;20477;-60
2022/03/06 01:36:13;;;;;;;45.35;26.83;;;;;;;4.85;49.95;102270.97;5012825;28;20038;-61
2022/03/06 01:38:38;;;;;;;42.10;25.55;;;;;;;4.86;49.87;102274.56;5011876;28;20069;-61
2022/03/06 01:41:03;;;;;;;49.20;26.95;;;;;;;4.93;49.53;102275.56;5005533;28;20041;-61
2022/03/06 01:43:29;;;;;;;45.20;27.52;;;;;;;4.92;49.54;102276.63;5012977;28;20145;-61
2022/03/06 01:45:54;;;;;;;45.70;26.73;;;;;;;4.86;49.46;102275.44;5011942;28;20080;-61
2022/03/06 01:48:20;;;;;;;46.22;26.48;;;;;;;4.81;49.57;102277.88;5011279;28;20044;-61
2022/03/06 01:50:45;;;;;;;45.17;26.98;;;;;;;4.89;49.15;102275.06;5009768;28;20034;-61
2022/03/06 01:53:12;;;;;;;43.35;26.20;;;;;;;4.90;49.00;102281.44;5010202;28;20123;-61
2022/03/06 01:55:38;;;;;;;43.47;27.13;;;;;;;4.88;48.88;102280.78;5009344;28;20034;-61
2022/03/06 01:58:09;;;;;;;43.08;26.50;;;;;;;4.89;49.55;102283.31;5011829;28;20022;-61
2022/03/06 02:00:38;;;;;;;41.70;26.67;;;;;;;4.79;49.45;102279.09;5011234;28;20483;-61
2022/03/06 02:03:04;;;;;;;42.60;25.00;;;;;;;4.79;49.59;102279.09;5001581;28;20034;-61
2022/03/06 02:05:29;;;;;;;41.65;26.45;;;;;;;4.75;49.92;102272.22;5010862;28;20254;-61
2022/03/06 02:07:55;;;;;;;43.45;25.98;;;;;;;4.82;49.29;102279.59;5010823;28;20104;-60
2022/03/06 02:10:20;;;;;;;41.42;25.35;;;;;;;4.76;49.79;102284.97;5008789;28;20037;-61
2022/03/06 02:12:46;;;;;;;43.95;26.10;;;;;;;4.78;49.14;102280.13;5008579;28;20034;-60
2022/03/06 02:15:14;;;;;;;46.33;26.55;;;;;;;4.64;50.27;102285.38;5010464;28;20052;-60
2022/03/06 02:17:43;;;;;;;40.55;26.23;;;;;;;4.56;50.30;102284.50;5012617;28;20026;-60
2022/03/06 02:20:15;;;;;;;43.13;26.35;;;;;;;4.50;50.47;102286.09;5012256;28;20025;-61
2022/03/06 02:22:46;;;;;;;44.80;26.30;;;;;;;4.49;50.52;102284.41;5010651;28;20025;-61
2022/03/06 02:25:16;;;;;;;43.58;25.65;;;;;;;4.49;50.81;102284.41;5012915;28;20026;-60
2022/03/06 02:27:42;;;;;;;41.33;25.95;;;;;;;4.38;50.84;102276.53;5012342;28;20029;-60
2022/03/06 02:30:12;;;;;;;47.58;25.90;;;;;;;4.37;50.84;102283.91;5009343;28;20445;-60
2022/03/06 02:32:40;;;;;;;46.42;26.33;;;;;;;4.32;51.31;102285.47;5009696;28;20034;-60
2022/03/06 02:35:08;;;;;;;38.50;24.38;;;;;;;4.37;50.75;102283.06;5010974;28;20362;-60
2022/03/06 02:37:33;;;;;;;40.15;25.23;;;;;;;4.39;50.80;102292.84;5012653;28;20045;-61
2022/03/06 02:40:00;;;;;;;40.63;25.25;;;;;;;4.32;50.58;102299.22;5011655;28;20041;-61
2022/03/06 02:42:29;;;;;;;43.35;25.65;;;;;;;4.36;50.70;102295.97;5010288;28;20034;-61
2022/03/06 02:44:56;;;;;;;39.85;24.90;;;;;;;4.41;50.58;102301.78;5006535;28;20033;-61
2022/03/06 02:47:22;;;;;;;41.30;25.63;;;;;;;4.43;50.58;102302.44;5010088;28;20168;-61
2022/03/06 02:49:53;;;;;;;37.63;24.92;;;;;;;4.43;50.85;102302.44;5010622;28;20105;-61
2022/03/06 02:52:19;;;;;;;38.90;23.73;;;;;;;4.38;50.98;102296.63;5010246;28;20112;-62
2022/03/06 02:54:45;;;;;;;39.53;24.77;;;;;;;4.48;50.89;102298.28;5010231;28;20135;-62
2022/03/06 02:57:13;;;;;;;41.83;24.83;;;;;;;4.51;50.29;102297.94;5010602;28;20029;-62
2022/03/06 02:59:39;;;;;;;41.53;25.75;;;;;;;4.46;50.41;102298.50;5010506;28;20026;-61
2022/03/06 03:02:07;;;;;;;37.92;23.85;;;;;;;4.49;51.00;102300.03;5009594;28;20030;-61
2022/03/06 03:04:33;;;;;;;38.17;23.50;;;;;;;4.53;50.61;102299.50;5010892;28;20037;-61
2022/03/06 03:06:59;;;;;;;35.67;23.42;;;;;;;4.47;50.56;102302.94;5012149;28;20034;-61
2022/03/06 03:09:25;;;;;;;40.42;24.58;;;;;;;4.50;50.49;102305.34;5012854;28;20037;-62
2022/03/06 03:11:52;;;;;;;37.83;23.23;;;;;;;4.45;50.99;102307.78;5019958;28;20032;-62
2022/03/06 03:14:20;;;;;;;36.67;23.17;;;;;;;4.42;50.62;102308.13;5011794;28;20389;-61
2022/03/06 03:16:46;;;;;;;38.20;23.73;;;;;;;4.35;51.37;102310.72;5007220;28;20022;-62
2022/03/06 03:19:11;;;;;;;36.42;22.98;;;;;;;4.42;50.99;102308.13;5006217;28;20052;-61
2022/03/06 03:21:37;;;;;;;41.40;23.42;;;;;;;4.38;51.08;102310.38;5011050;28;20038;-62
2022/03/06 03:24:02;;;;;;;35.25;22.60;;;;;;;4.32;51.31;102312.94;5009075;28;20042;-62
2022/03/06 03:26:28;;;;;;;37.25;24.02;;;;;;;4.27;51.91;102304.38;5004278;28;20115;-62
2022/03/06 03:28:53;;;;;;;37.03;22.77;;;;;;;4.22;51.99;102312.31;5012122;28;20030;-61
2022/03/06 03:31:19;;;;;;;38.47;23.95;;;;;;;4.24;51.47;102315.72;5010502;28;20420;-62
2022/03/06 03:33:47;;;;;;;36.35;22.90;;;;;;;4.21;51.63;102318.84;5009003;28;20041;-61
2022/03/06 03:36:13;;;;;;;39.80;24.13;;;;;;;4.22;51.75;102313.16;5010100;28;20462;-62
2022/03/06 03:38:40;;;;;;;39.08;24.08;;;;;;;4.23;51.94;102305.78;5007454;28;20037;-62
2022/03/06 03:41:05;;;;;;;36.80;23.17;;;;;;;4.18;52.07;102317.31;4989174;28;20034;-61
2022/03/06 03:43:31;;;;;;;37.70;23.13;;;;;;;4.24;51.36;102308.34;4988902;28;20077;-62
2022/03/06 03:45:57;;;;;;;36.47;23.75;;;;;;;4.24;51.80;102304.72;4990331;28;20026;-62
2022/03/06 03:48:26;;;;;;;35.65;22.90;;;;;;;4.19;51.36;102308.88;4989259;28;20069;-61
2022/03/06 03:50:52;;;;;;;37.22;22.85;;;;;;;4.23;51.50;102303.03;4990309;28;20034;-61
2022/03/06 03:53:17;;;;;;;37.80;23.45;;;;;;;4.13;52.04;102317.84;4990090;28;20034;-62
2022/03/06 03:55:43;;;;;;;37.55;23.85;;;;;;;4.19;51.79;102316.25;4990170;28;20037;-62
2022/03/06 03:58:08;;;;;;;37.80;24.55;;;;;;;4.22;51.76;102320.56;4990068;28;20030;-61
2022/03/06 04:00:33;;;;;;;37.22;24.15;;;;;;;4.14;51.92;102329.69;4989585;28;20026;-62
2022/03/06 04:02:58;;;;;;;36.03;22.80;;;;;;;4.18;51.98;102320.03;4990171;28;20026;-61
2022/03/06 04:05:26;;;;;;;38.10;22.65;;;;;;;4.13;51.87;102330.72;4989602;28;20394;-62
2022/03/06 04:07:52;;;;;;;37.10;22.75;;;;;;;4.07;51.92;102324.00;4989071;28;20022;-62
2022/03/06 04:10:17;;;;;;;37.40;22.67;;;;;;;4.06;51.83;102321.44;4989985;28;20026;-61
2022/03/06 04:12:42;;;;;;;38.15;22.02;;;;;;;4.03;52.19;102319.91;4989457;28;20031;-61
2022/03/06 04:15:08;;;;;;;35.65;22.83;;;;;;;4.05;51.77;102337.09;4989777;28;20034;-61
2022/03/06 04:17:36;;;;;;;34.58;21.70;;;;;;;4.01;52.40;102343.97;4989476;28;20049;-62
2022/03/06 04:20:05;;;;;;;34.80;22.40;;;;;;;4.01;52.51;102345.81;4989623;28;20038;-62
2022/03/06 04:22:30;;;;;;;34.28;22.33;;;;;;;3.98;52.23;102352.53;4992448;28;20042;-61
2022/03/06 04:24:58;;;;;;;35.42;23.48;;;;;;;3.98;52.01;102352.53;4993851;28;20069;-62
2022/03/06 04:27:23;;;;;;;37.03;23.33;;;;;;;3.96;52.71;102349.09;4988795;28;20038;-62
2022/03/06 04:29:55;;;;;;;35.08;22.80;;;;;;;3.94;51.98;102348.41;4988962;28;20092;-62
2022/03/06 04:32:20;;;;;;;37.20;23.27;;;;;;;3.91;52.04;102357.00;4988965;28;20042;-62
2022/03/06 04:34:46;;;;;;;36.15;23.60;;;;;;;3.86;52.77;102357.53;4985922;28;20026;-62
2022/03/06 04:37:11;;;;;;;37.70;22.98;;;;;;;3.82;52.63;102352.56;4988467;28;20063;-62
2022/03/06 04:39:36;;;;;;;34.17;21.95;;;;;;;3.85;52.70;102358.56;4998081;28;20080;-62
2022/03/06 04:42:02;;;;;;;36.47;22.40;;;;;;;3.86;52.45;102356.66;5008467;28;20034;-61
2022/03/06 04:44:28;;;;;;;32.97;21.55;;;;;;;3.77;52.64;102365.91;5009053;28;20061;-61
2022/03/06 04:46:53;;;;;;;34.38;22.10;;;;;;;3.74;52.36;102356.16;5009593;28;20374;-61
2022/03/06 04:49:18;;;;;;;31.60;21.15;;;;;;;3.68;52.88;102363.16;5008301;28;20038;-61
2022/03/06 04:51:43;;;;;;;33.53;22.15;;;;;;;3.65;52.96;102368.16;5006691;28;20034;-61
2022/03/06 04:54:09;;;;;;;33.22;21.38;;;;;;;3.69;52.52;102369.50;5007289;28;20481;-61
2022/03/06 04:56:37;;;;;;;37.03;22.30;;;;;;;3.66;53.04;102378.13;5006469;28;20022;-61
2022/03/06 04:59:03;;;;;;;32.45;21.13;;;;;;;3.71;52.90;102380.34;5008762;28;20038;-61
2022/03/06 05:01:28;;;;;;;34.10;22.15;;;;;;;3.70;52.24;102385.00;5008981;28;20452;-61
2022/03/06 05:03:54;;;;;;;32.22;21.08;;;;;;;3.60;52.96;102396.13;5009132;28;20042;-61
2022/03/06 05:06:19;;;;;;;34.00;22.00;;;;;;;3.58;53.23;102387.19;5008474;28;20042;-61
2022/03/06 05:08:44;;;;;;;29.85;20.40;;;;;;;3.58;52.69;102384.47;5008285;28;20149;-61
2022/03/06 05:11:10;;;;;;;32.53;21.45;;;;;;;3.62;52.68;102390.47;5010401;28;20064;-61
2022/03/06 05:13:36;;;;;;;32.65;21.92;;;;;;;3.59;52.71;102386.16;5019475;28;20033;-61
2022/03/06 05:16:02;;;;;;;34.35;21.90;;;;;;;3.59;52.82;102394.41;5011890;28;20548;-61
2022/03/06 05:18:27;;;;;;;31.60;21.98;;;;;;;3.55;52.94;102401.25;5011279;28;20033;-61
2022/03/06 05:20:52;;;;;;;27.83;20.35;;;;;;;3.53;53.16;102396.97;5013001;28;20436;-61
2022/03/06 05:23:18;;;;;;;30.02;21.20;;;;;;;3.54;52.65;102394.06;5011620;28;20040;-61
2022/03/06 05:25:45;;;;;;;31.48;21.48;;;;;;;3.50;53.03;102400.03;5010936;28;20040;-61
2022/03/06 05:28:15;;;;;;;31.02;21.80;;;;;;;3.49;52.76;102404.66;5011351;28;20080;-61
2022/03/06 05:30:40;;;;;;;29.05;21.05;;;;;;;3.39;52.86;102403.97;5012554;28;20037;-61
2022/03/06 05:33:06;;;;;;;29.67;20.58;;;;;;;3.51;52.85;102404.53;5009845;28;20087;-61
2022/03/06 05:35:31;;;;;;;29.50;20.80;;;;;;;3.47;53.08;102412.22;5012283;28;20022;-60
2022/03/06 05:37:56;;;;;;;31.48;22.13;;;;;;;3.47;53.32;102405.88;5012304;28;20469;-61
2022/03/06 05:40:22;;;;;;;30.40;20.48;;;;;;;3.44;53.56;102404.31;4996160;28;20055;-61
2022/03/06 05:42:48;;;;;;;30.33;21.55;;;;;;;3.39;53.57;102417.69;4989873;28;20022;-61
2022/03/06 05:45:13;;;;;;;34.08;21.90;;;;;;;3.37;53.11;102415.09;4991715;28;20050;-61
2022/03/06 05:47:42;;;;;;;31.55;20.85;;;;;;;3.35;53.41;102427.31;4989856;28;20509;-61
2022/03/06 05:50:08;;;;;;;30.50;20.48;;;;;;;3.25;53.77;102418.34;4991860;28;20085;-61
2022/03/06 05:52:36;;;;;;;29.67;20.25;;;;;;;3.25;53.63;102421.09;4991665;28;20034;-61
2022/03/06 05:55:03;;;;;;;31.95;21.98;;;;;;;3.24;53.56;102427.59;4991134;28;20069;-61
2022/03/06 05:57:28;;;;;;;29.42;21.70;;;;;;;3.16;54.08;102423.78;4990810;28;20026;-61
2022/03/06 05:59:53;;;;;;;27.88;20.67;;;;;;;3.17;53.20;102425.50;4992258;28;20082;-62
2022/03/06 06:02:19;;;;;;;33.67;21.63;;;;;;;3.21;53.75;102431.53;4991856;28;20057;-62
2022/03/06 06:04:45;;;;;;;31.52;21.40;;;;;;;3.19;53.59;102425.38;4990359;28;20117;-61
2022/03/06 06:07:10;;;;;;;29.17;21.33;;;;;;;3.16;53.73;102439.41;4991356;28;20098;-61
2022/03/06 06:09:36;;;;;;;29.92;21.85;;;;;;;3.16;53.94;102437.50;4990178;28;20121;-61
2022/03/06 06:12:05;;;;;;;29.80;21.60;;;;;;;3.16;53.53;102442.16;4991830;28;20027;-61
2022/03/06 06:14:31;;;;;;;30.52;21.35;;;;;;;3.15;53.53;102440.44;4990176;28;20030;-61
2022/03/06 06:16:56;;;;;;;29.17;21.48;;;;;;;3.10;53.58;102442.78;4987024;28;20105;-61
2022/03/06 06:19:24;;;;;;;28.65;20.25;;;;;;;3.13;54.04;102454.31;4992184;28;20038;-61
2022/03/06 06:21:49;;;;;;;28.88;21.02;;;;;;;3.07;53.56;102448.63;4984233;28;20054;-61
2022/03/06 06:24:15;;;;;;;28.02;20.08;;;;;;;3.11;53.48;102450.03;4991656;28;20342;-61
2022/03/06 06:26:47;;;;;;;28.58;20.83;;;;;;;3.11;53.95;102463.75;4989292;28;20080;-61
2022/03/06 06:29:13;;;;;;;27.23;20.55;;;;;;;3.12;53.99;102459.97;4989756;28;20516;-61
2022/03/06 06:31:39;;;;;;;32.33;20.80;;;;;;;3.12;53.91;102449.84;4989532;28;20037;-61
2022/03/06 06:34:04;;;;;;;30.63;22.08;;;;;;;3.20;53.61;102460.84;4992020;28;20631;-61
2022/03/06 06:36:30;;;;;;;26.05;20.38;;;;;;;3.22;53.00;102459.81;4990453;28;20371;-61
2022/03/06 06:38:55;;;;;;;28.75;20.70;;;;;;;3.21;53.26;102464.47;4992801;28;20045;-61
2022/03/06 06:41:23;;;;;;;29.67;21.30;;;;;;;3.12;53.13;102465.47;5010290;28;20068;-61
2022/03/06 06:43:49;;;;;;;28.95;20.75;;;;;;;3.10;53.42;102467.50;5010794;28;20022;-61
2022/03/06 06:46:14;;;;;;;30.73;21.42;;;;;;;3.07;53.26;102463.22;5010716;28;20116;-61
2022/03/06 06:48:39;;;;;;;28.10;19.67;;;;;;;3.06;53.26;102475.19;5011292;28;20033;-61
2022/03/06 06:51:05;;;;;;;27.92;20.95;;;;;;;3.04;54.29;102484.63;5009007;28;20121;-61
2022/03/06 06:53:34;;;;;;;32.03;22.10;;;;;;;3.07;53.41;102481.56;5009263;28;20830;-61
2022/03/06 06:55:59;;;;;;;29.45;20.88;;;;;;;3.06;53.35;102480.66;5008529;28;20049;-61
2022/03/06 06:58:25;;;;;;;27.15;20.67;;;;;;;3.07;53.26;102485.16;5009218;28;20491;-61
2022/03/06 07:00:50;;;;;;;28.50;20.58;;;;;;;3.07;53.31;102479.66;5009874;28;20527;-61
2022/03/06 07:03:15;;;;;;;31.70;21.27;;;;;;;3.12;53.31;102487.41;5008137;28;20033;-61
2022/03/06 07:05:42;;;;;;;28.20;21.55;;;;;;;3.08;53.50;102486.88;5008811;28;20030;-62
2022/03/06 07:08:07;;;;;;;29.77;21.83;;;;;;;3.06;53.44;102497.13;5010332;28;20037;-61
2022/03/06 07:10:33;;;;;;;27.63;21.48;;;;;;;3.11;53.78;102491.19;5010294;28;20034;-61
2022/03/06 07:12:58;;;;;;;29.20;21.40;;;;;;;3.15;54.03;102498.91;5010200;28;20080;-61
2022/03/06 07:15:32;;;;;;;28.05;21.67;;;;;;;3.15;53.73;102504.41;5010086;28;20022;-62
2022/03/06 07:17:58;;;;;;;30.17;21.98;;;;;;;3.13;53.39;102500.94;5009343;28;20088;-62
2022/03/06 07:20:24;;;;;;;28.42;20.70;;;;;;;3.16;53.72;102497.88;5010629;28;20714;-61
2022/03/06 07:22:50;;;;;;;29.45;22.65;;;;;;;3.15;53.87;102503.53;5010190;28;20046;-62
2022/03/06 07:25:15;;;;;;;28.52;20.73;;;;;;;3.17;53.93;102502.34;5009381;28;20105;-62
2022/03/06 07:27:43;;;;;;;27.42;21.08;;;;;;;3.19;54.20;102500.31;5009475;28;20034;-61
2022/03/06 07:30:10;;;;;;;27.25;21.13;;;;;;;3.17;53.57;102507.81;5009083;28;20148;-62
2022/03/06 07:32:54;;;;;;;28.98;21.83;;;;;;;3.27;53.69;102507.72;5008549;28;20026;-62
2022/03/06 07:35:20;;;;;;;27.38;21.30;;;;;;;3.27;53.33;102515.94;5009427;28;20022;-62
2022/03/06 07:37:46;;;;;;;27.15;21.63;;;;;;;3.36;54.03;102517.69;5006669;28;20022;-62
2022/03/06 07:40:15;;;;;;;27.55;21.08;;;;;;;3.38;54.02;102523.91;5008453;28;20481;-62
2022/03/06 07:42:40;;;;;;;29.98;21.92;;;;;;;3.43;53.52;102529.75;5010009;28;20057;-62
2022/03/06 07:45:15;;;;;;;29.45;21.90;;;;;;;3.47;53.49;102530.28;5008742;28;20112;-62
2022/03/06 07:47:41;;;;;;;30.48;22.38;;;;;;;3.48;53.59;102537.47;5007664;28;20487;-61
2022/03/06 07:50:12;;;;;;;27.98;21.52;;;;;;;3.55;53.45;102540.44;5009207;28;20501;-62
2022/03/06 07:52:38;;;;;;;28.88;21.58;;;;;;;3.58;53.17;102537.34;5009606;28;20060;-62
2022/03/06 07:55:04;;;;;;;29.25;21.73;;;;;;;3.65;53.07;102544.72;5011378;28;20489;-61
2022/03/06 07:57:33;;;;;;;30.40;21.67;;;;;;;3.68;53.29;102547.16;5010236;28;20464;-60
2022/03/06 07:59:58;;;;;;;25.38;20.08;;;;;;;3.77;53.36;102555.41;5016663;28;20095;-60
2022/03/06 08:02:27;;;;;;;27.92;21.15;;;;;;;3.80;52.92;102555.09;5013789;28;20490;-63
2022/03/06 08:04:52;;;;;;;28.27;20.67;;;;;;;3.88;53.20;102564.22;5010914;28;20112;-61
2022/03/06 08:07:17;;;;;;;29.42;20.70;;;;;;;3.95;52.57;102558.91;5006196;28;20068;-60
2022/03/06 08:09:43;;;;;;;28.77;20.02;;;;;;;4.05;52.53;102564.25;5010186;28;20040;-60
2022/03/06 08:12:08;;;;;;;25.58;20.42;;;;;;;4.16;52.58;102569.44;5030859;28;20233;-60
2022/03/06 08:14:34;;;;;;;28.27;20.05;;;;;;;4.29;53.01;102566.22;5011312;28;20041;-60
2022/03/06 08:16:59;;;;;;;26.70;21.10;;;;;;;4.36;52.79;102569.97;5013875;28;20034;-60
2022/03/06 08:19:25;;;;;;;33.38;22.92;;;;;;;4.41;52.35;102575.84;5017102;28;20592;-61
2022/03/06 08:21:50;;;;;;;25.15;19.95;;;;;;;4.47;51.96;102569.66;5011690;28;20033;-61
2022/03/06 08:24:16;;;;;;;28.33;19.70;;;;;;;4.57;52.14;102567.59;4996074;28;20382;-61
2022/03/06 08:26:44;;;;;;;31.02;21.42;;;;;;;4.66;51.96;102571.22;5012790;28;20087;-61
2022/03/06 08:29:10;;;;;;;27.67;18.80;;;;;;;4.75;51.32;102574.81;5008071;28;20495;-62
2022/03/06 08:31:35;;;;;;;27.10;20.58;;;;;;;4.80;51.72;102570.53;5008911;28;20033;-63
2022/03/06 08:34:00;;;;;;;28.80;20.80;;;;;;;4.95;51.61;102570.66;5008828;28;20034;-62
2022/03/06 08:36:30;;;;;;;24.75;20.10;;;;;;;5.13;51.81;102571.31;5007772;28;20061;-63
2022/03/06 08:38:55;;;;;;;23.42;19.50;;;;;;;5.27;50.77;102586.28;5000491;28;20082;-61
2022/03/06 08:41:20;;;;;;;26.42;19.70;;;;;;;5.31;50.81;102581.28;4988102;28;20073;-62
2022/03/06 08:43:48;;;;;;;23.52;19.65;;;;;;;5.39;50.42;102593.13;4989950;28;20037;-61
2022/03/06 08:46:14;;;;;;;27.45;19.25;;;;;;;5.42;50.15;102591.91;4992236;28;20022;-61
2022/03/06 08:48:39;;;;;;;24.90;19.42;;;;;;;5.43;49.82;102593.63;4991359;28;20088;-61
2022/03/06 08:51:05;;;;;;;25.27;19.48;;;;;;;5.46;49.80;102590.50;4993906;28;20034;-63
2022/03/06 08:53:31;;;;;;;25.55;18.83;;;;;;;5.54;49.92;102592.38;4993112;28;20157;-61
2022/03/06 08:55:57;;;;;;;24.73;19.30;;;;;;;5.58;49.94;102594.63;4990640;28;20045;-61
2022/03/06 08:58:23;;;;;;;26.67;19.00;;;;;;;5.70;49.67;102591.44;4993923;28;20035;-62
2022/03/06 09:00:48;;;;;;;23.80;18.48;;;;;;;5.73;49.60;102594.72;4993207;28;20046;-62
2022/03/06 09:03:13;;;;;;;24.10;18.45;;;;;;;5.87;49.55;102593.13;4993362;28;20022;-62
2022/03/06 09:05:40;;;;;;;23.77;18.27;;;;;;;5.93;49.38;102586.03;4992609;28;20394;-63
2022/03/06 09:08:07;;;;;;;25.90;18.95;;;;;;;6.05;49.05;102595.63;4993869;28;20037;-62
2022/03/06 09:10:34;;;;;;;24.33;18.67;;;;;;;6.11;49.08;102593.00;4990331;28;20466;-63
2022/03/06 09:13:00;;;;;;;23.50;18.83;;;;;;;6.20;49.27;102596.56;4992337;28;20520;-60
2022/03/06 09:15:26;;;;;;;28.50;18.95;;;;;;;6.24;48.30;102599.84;4997498;28;20034;-60
2022/03/06 09:17:51;;;;;;;26.05;19.60;;;;;;;6.28;48.57;102596.53;4991348;28;20041;-59
2022/03/06 09:20:16;;;;;;;22.27;18.50;;;;;;;6.36;48.09;102598.38;4993837;28;20038;-59
2022/03/06 09:22:41;;;;;;;24.42;18.90;;;;;;;6.37;48.15;102597.34;4993684;28;20035;-59
2022/03/06 09:25:07;;;;;;;23.95;18.95;;;;;;;6.44;47.95;102600.22;4990781;28;20045;-59
2022/03/06 09:27:32;;;;;;;23.00;18.23;;;;;;;6.46;47.87;102592.63;4995201;28;20490;-59
2022/03/06 09:29:57;;;;;;;24.40;18.45;;;;;;;6.50;47.32;102596.75;4992091;28;20062;-59
2022/03/06 09:32:23;;;;;;;20.42;17.90;;;;;;;6.54;46.93;102589.81;4991732;28;20042;-59
2022/03/06 09:34:48;;;;;;;23.65;17.65;;;;;;;6.63;47.49;102589.53;4991660;28;20034;-63
2022/03/06 09:37:14;;;;;;;21.15;17.27;;;;;;;6.73;47.01;102599.50;4992316;28;20023;-63
2022/03/06 09:39:42;;;;;;;21.05;17.10;;;;;;;6.78;46.97;102592.38;4998176;28;20375;-63
2022/03/06 09:42:11;;;;;;;24.13;18.65;;;;;;;6.84;46.61;102590.78;5006742;28;20383;-63
2022/03/06 09:44:39;;;;;;;22.75;18.20;;;;;;;6.89;46.94;102582.78;5015333;28;20087;-63
2022/03/06 09:47:08;;;;;;;23.33;18.50;;;;;;;6.95;46.83;102582.03;5010014;28;20056;-63
2022/03/06 09:49:33;;;;;;;24.92;18.27;;;;;;;7.04;46.92;102599.41;5008357;28;20519;-63
2022/03/06 09:52:01;;;;;;;21.70;17.77;;;;;;;7.07;47.35;102585.19;5009479;28;20026;-64
2022/03/06 09:54:33;;;;;;;23.73;17.95;;;;;;;7.16;46.12;102586.00;5009346;28;20370;-63
2022/03/06 09:57:00;;;;;;;20.85;17.58;;;;;;;7.27;46.17;102586.38;5008465;28;20038;-63
2022/03/06 09:59:25;;;;;;;21.65;17.77;;;;;;;7.33;45.92;102590.28;5004347;28;20038;-64
2022/03/06 10:01:50;;;;;;;23.15;17.88;;;;;;;7.42;45.98;102586.38;5010060;28;20630;-62
2022/03/06 10:04:35;;;;;;;23.65;18.65;;;;;;;7.53;46.85;102583.16;5005426;28;20046;-62
2022/03/06 10:07:06;;;;;;;22.52;17.20;;;;;;;7.61;46.38;102587.72;5005695;28;20204;-61
2022/03/06 10:09:54;;;;;;;19.95;16.73;;;;;;;7.62;45.56;102573.72;5009882;28;20029;-62
2022/03/06 10:12:26;;;;;;;22.25;18.40;;;;;;;7.71;45.40;102584.69;5011271;28;20034;-61
2022/03/06 10:14:53;;;;;;;20.88;17.17;;;;;;;7.74;45.56;102587.91;5013845;28;20030;-60
2022/03/06 10:17:21;;;;;;;22.83;17.20;;;;;;;7.79;45.76;102588.19;5008563;28;20018;-61
2022/03/06 10:19:53;;;;;;;20.40;17.23;;;;;;;7.87;45.75;102593.63;4998119;28;20363;-61
2022/03/06 10:22:20;;;;;;;19.63;16.87;;;;;;;7.94;45.19;102593.72;5005033;28;20029;-61
2022/03/06 10:25:06;;;;;;;20.05;16.92;;;;;;;8.02;45.44;102599.13;5010028;28;20414;-61
2022/03/06 10:27:53;;;;;;;19.73;17.60;;;;;;;8.06;45.50;102606.00;5007200;28;20133;-61
2022/03/06 10:30:38;;;;;;;19.80;16.50;;;;;;;8.08;45.18;102592.81;4994738;28;20121;-61
2022/03/06 10:33:10;;;;;;;19.42;16.25;;;;;;;8.08;44.46;102590.03;5010805;28;20057;-61
2022/03/06 10:35:39;;;;;;;;;;;;;;;8.22;46.19;102596.59;4999073;28;20030;-61
2022/03/06 10:38:28;;;;;;;19.33;16.38;;;;;;;8.21;45.11;102597.63;5007902;28;20300;-61
2022/03/06 10:41:14;;;;;;;18.25;15.02;;;;;;;8.23;44.35;102589.16;5021281;28;20125;-61
2022/03/06 10:43:40;;;;;;;19.85;16.13;;;;;;;8.21;44.53;102600.41;5018140;28;20064;-61
2022/03/06 10:46:06;;;;;;;19.20;14.60;;;;;;;8.21;43.95;102596.78;5030045;28;20021;-61
2022/03/06 10:48:31;;;;;;;18.13;15.07;;;;;;;8.24;43.89;102593.63;5012185;28;20026;-61
2022/03/06 10:51:15;;;;;;;18.75;15.43;;;;;;;8.23;44.46;102592.78;5013235;28;20033;-61
2022/03/06 10:53:40;;;;;;;17.75;15.07;;;;;;;8.17;43.87;102593.53;5017097;28;20116;-61
2022/03/06 10:56:13;;;;;;;16.20;14.43;;;;;;;8.18;43.97;102594.44;5011422;28;20125;-61
2022/03/06 10:58:41;;;;;;;18.63;14.27;;;;;;;8.18;43.08;102597.19;5011793;28;20033;-61
2022/03/06 11:01:06;;;;;;;17.67;14.52;;;;;;;8.24;43.97;102585.31;5009665;28;20038;-61
2022/03/06 11:03:35;;;;;;;18.75;14.77;;;;;;;8.27;44.47;102585.81;5009000;28;20108;-61
2022/03/06 11:06:02;;;;;;;15.32;13.73;;;;;;;8.28;42.99;102595.81;5011495;28;20477;-61
2022/03/06 11:08:27;;;;;;;17.33;14.63;;;;;;;8.36;43.55;102589.28;5011760;28;20042;-62
2022/03/06 11:10:53;;;;;;;16.13;14.35;;;;;;;8.33;42.64;102582.25;5011805;28;20386;-62
2022/03/06 11:13:18;;;;;;;18.80;14.45;;;;;;;8.29;42.33;102578.19;5007110;28;20081;-62
2022/03/06 11:15:44;;;;;;;15.90;13.23;;;;;;;8.31;41.30;102580.72;4998240;28;20040;-61